Time;durP1;ratioP1;P1;durP2;ratioP2;P2;SDS_P1;SDS_P2;PMS_P1;PMS_P2;Temp;Humidity;BMP_temperature;BMP_pressure;BME280_temperature;BME280_humidity;BME280_pressure;Samples;Min_cycle;Max_cycle;Signal;HPM_P1;HPM_P2
2021/11/07 00:00:01;;;;;;;8.07;6.80;;;9.60;99.90;;;;;;5061521;28;20253;-63
2021/11/07 00:02:39;;;;;;;10.53;6.77;;;9.60;99.90;;;;;;5043090;28;20196;-63
2021/11/07 00:05:19;;;;;;;9.53;6.80;;;9.60;99.90;;;;;;5063266;28;20214;-63
2021/11/07 00:07:54;;;;;;;8.10;7.30;;;9.60;99.90;;;;;;5061183;28;20219;-63
2021/11/07 00:10:31;;;;;;;10.40;7.33;;;9.70;99.90;;;;;;5047231;28;20611;-64
2021/11/07 00:13:11;;;;;;;14.13;7.40;;;9.70;99.90;;;;;;5064880;28;21390;-63
2021/11/07 00:15:40;;;;;;;10.93;8.00;;;9.70;99.90;;;;;;5065938;28;20235;-64
2021/11/07 00:18:11;;;;;;;12.00;8.13;;;9.70;99.90;;;;;;5062340;28;20212;-63
2021/11/07 00:20:47;;;;;;;16.20;8.43;;;9.70;99.90;;;;;;5065271;28;20586;-64
2021/11/07 00:23:32;;;;;;;10.17;9.10;;;9.60;99.90;;;;;;5062805;28;20199;-63
2021/11/07 00:26:07;;;;;;;11.50;9.63;;;9.60;99.90;;;;;;5063767;28;20336;-63
2021/11/07 00:28:40;;;;;;;19.20;10.10;;;9.60;99.90;;;;;;5075661;28;20188;-63
2021/11/07 00:31:18;;;;;;;15.23;10.07;;;9.60;99.90;;;;;;5058002;28;20725;-63
2021/11/07 00:34:09;;;;;;;15.23;10.97;;;9.60;99.90;;;;;;5073400;28;20215;-63
2021/11/07 00:36:38;;;;;;;17.10;10.40;;;9.60;99.90;;;;;;5062098;28;20287;-63
2021/11/07 00:39:14;;;;;;;11.43;10.03;;;9.50;99.90;;;;;;5044938;28;20208;-63
2021/11/07 00:41:50;;;;;;;14.17;11.20;;;9.50;99.90;;;;;;5064068;28;20566;-62
2021/11/07 00:44:27;;;;;;;18.57;11.93;;;9.50;99.90;;;;;;5059865;28;20212;-62
2021/11/07 00:46:59;;;;;;;15.90;12.13;;;9.40;99.90;;;;;;5063399;28;20587;-64
2021/11/07 00:49:33;;;;;;;18.00;12.93;;;9.40;99.90;;;;;;5064659;28;20682;-64
2021/11/07 00:52:16;;;;;;;16.60;12.13;;;9.40;99.90;;;;;;5065064;28;20214;-63
2021/11/07 00:54:52;;;;;;;17.90;12.73;;;9.40;99.90;;;;;;5045478;28;20257;-64
2021/11/07 00:57:23;;;;;;;16.23;12.77;;;9.40;99.90;;;;;;5064185;28;20256;-64
2021/11/07 00:59:58;;;;;;;18.63;13.73;;;9.40;99.90;;;;;;5047876;28;20192;-63
2021/11/07 01:02:30;;;;;;;18.90;13.13;;;9.40;99.90;;;;;;5061684;28;20762;-63
2021/11/07 01:04:59;;;;;;;16.77;13.70;;;9.40;99.90;;;;;;5074566;28;20261;-63
2021/11/07 01:07:28;;;;;;;16.63;13.30;;;9.40;99.90;;;;;;5046614;28;20693;-64
2021/11/07 01:09:58;;;;;;;18.47;13.77;;;9.40;99.90;;;;;;5062715;28;20301;-63
2021/11/07 01:12:27;;;;;;;20.80;13.90;;;9.40;99.90;;;;;;5061622;28;20211;-63
2021/11/07 01:14:59;;;;;;;17.43;13.50;;;9.40;99.90;;;;;;5063150;28;20660;-64
2021/11/07 01:17:28;;;;;;;16.43;12.93;;;9.40;99.90;;;;;;5063690;28;20781;-63
2021/11/07 01:19:57;;;;;;;17.53;12.57;;;9.40;99.90;;;;;;5062034;28;20331;-63
2021/11/07 01:22:35;;;;;;;19.90;12.83;;;9.50;99.90;;;;;;5046235;28;20757;-63
2021/11/07 01:25:04;;;;;;;18.43;13.10;;;9.50;99.90;;;;;;5062965;28;20251;-63
2021/11/07 01:27:36;;;;;;;15.93;12.80;;;9.50;99.90;;;;;;5043255;28;20639;-64
2021/11/07 01:30:14;;;;;;;16.40;12.57;;;9.50;99.90;;;;;;5046060;28;20192;-64
2021/11/07 01:32:46;;;;;;;16.10;13.67;;;9.60;99.90;;;;;;5062590;28;20770;-63
2021/11/07 01:35:19;;;;;;;19.70;14.17;;;9.60;99.90;;;;;;5063601;28;20204;-63
2021/11/07 01:37:57;;;;;;;18.53;13.80;;;9.60;99.90;;;;;;5048274;28;20250;-64
2021/11/07 01:40:28;;;;;;;17.87;13.87;;;9.60;99.90;;;;;;5064628;28;20211;-63
2021/11/07 01:42:58;;;;;;;18.17;14.07;;;9.60;99.90;;;;;;5066602;28;20678;-63
2021/11/07 01:45:32;;;;;;;16.67;13.60;;;9.60;99.90;;;;;;5065396;28;20204;-64
2021/11/07 01:48:07;;;;;;;17.70;12.90;;;9.50;99.90;;;;;;5066484;28;20196;-64
2021/11/07 01:50:40;;;;;;;20.23;13.67;;;9.60;99.90;;;;;;5064950;28;20589;-63
2021/11/07 01:53:18;;;;;;;14.30;12.20;;;9.60;99.90;;;;;;5049350;28;20189;-64
2021/11/07 01:55:48;;;;;;;20.30;13.00;;;9.70;99.90;;;;;;5049588;28;20253;-64
2021/11/07 01:58:16;;;;;;;16.13;12.03;;;9.70;99.90;;;;;;5059624;28;20246;-64
2021/11/07 02:00:49;;;;;;;15.23;11.70;;;9.70;99.90;;;;;;5063018;28;20211;-63
2021/11/07 02:03:19;;;;;;;12.77;11.40;;;9.70;99.90;;;;;;5063192;28;20203;-63
2021/11/07 02:05:48;;;;;;;13.10;11.77;;;9.70;99.90;;;;;;5065411;28;20224;-63
2021/11/07 02:08:18;;;;;;;13.33;11.33;;;9.80;99.90;;;;;;5064446;28;20211;-63
2021/11/07 02:10:47;;;;;;;15.20;12.30;;;9.90;99.90;;;;;;5064706;28;20188;-64
2021/11/07 02:13:17;;;;;;;16.13;12.03;;;9.90;99.90;;;;;;5064025;28;20230;-63
2021/11/07 02:15:47;;;;;;;14.70;11.60;;;9.90;99.90;;;;;;5065514;28;20228;-64
2021/11/07 02:18:17;;;;;;;13.23;11.73;;;9.90;99.90;;;;;;5063410;28;20212;-63
2021/11/07 02:20:48;;;;;;;20.23;12.50;;;9.90;99.90;;;;;;5066327;28;20188;-63
2021/11/07 02:23:19;;;;;;;18.03;13.37;;;10.00;99.90;;;;;;5065150;28;20261;-63
2021/11/07 02:25:52;;;;;;;16.37;13.47;;;10.00;99.90;;;;;;5066704;28;20232;-64
2021/11/07 02:28:25;;;;;;;14.80;13.20;;;10.00;99.90;;;;;;5065116;28;20223;-64
2021/11/07 02:30:55;;;;;;;16.67;13.33;;;10.00;99.90;;;;;;5066669;28;20659;-63
2021/11/07 02:33:24;;;;;;;16.57;13.43;;;10.10;99.90;;;;;;5047370;28;20211;-63
2021/11/07 02:35:54;;;;;;;19.17;13.47;;;10.10;99.90;;;;;;5066563;28;20188;-64
2021/11/07 02:38:23;;;;;;;14.63;12.83;;;10.10;99.90;;;;;;5064958;28;20196;-64
2021/11/07 02:40:51;;;;;;;12.90;11.50;;;10.00;99.90;;;;;;5065861;28;20200;-64
2021/11/07 02:43:19;;;;;;;13.43;11.33;;;10.10;99.90;;;;;;5063849;28;20228;-63
2021/11/07 02:45:48;;;;;;;11.47;10.40;;;10.10;99.90;;;;;;5046763;28;21004;-64
2021/11/07 02:48:16;;;;;;;14.80;11.63;;;10.20;99.90;;;;;;5063709;28;20265;-64
2021/11/07 02:50:45;;;;;;;12.23;10.93;;;10.20;99.90;;;;;;5060012;28;20208;-63
2021/11/07 02:53:15;;;;;;;18.30;12.03;;;10.20;99.90;;;;;;5076858;28;20222;-63
2021/11/07 02:55:45;;;;;;;12.40;10.83;;;10.20;99.90;;;;;;5065671;28;20234;-63
2021/11/07 02:58:13;;;;;;;14.23;10.53;;;10.20;99.90;;;;;;5062033;28;20239;-64
2021/11/07 03:00:43;;;;;;;17.00;11.10;;;10.20;99.90;;;;;;5064303;28;20258;-64
2021/11/07 03:03:11;;;;;;;15.60;12.07;;;10.20;99.90;;;;;;5073602;28;20196;-64
2021/11/07 03:05:39;;;;;;;13.40;11.87;;;10.20;99.90;;;;;;5064920;28;20257;-64
2021/11/07 03:08:08;;;;;;;11.70;10.43;;;10.30;99.90;;;;;;5063985;28;20216;-65
2021/11/07 03:10:38;;;;;;;14.57;10.97;;;10.30;99.90;;;;;;5062141;28;20202;-63
2021/11/07 03:13:09;;;;;;;12.20;10.30;;;10.30;99.90;;;;;;5064341;28;20680;-63
2021/11/07 03:15:39;;;;;;;11.33;10.03;;;10.30;99.90;;;;;;5076241;28;20250;-64
2021/11/07 03:18:09;;;;;;;13.63;10.67;;;10.30;99.90;;;;;;5065043;28;20275;-63
2021/11/07 03:20:37;;;;;;;14.37;10.30;;;10.30;99.90;;;;;;5059645;28;20212;-64
2021/11/07 03:23:07;;;;;;;11.47;10.27;;;10.40;99.90;;;;;;5062141;28;20223;-63
2021/11/07 03:25:45;;;;;;;13.23;10.70;;;10.30;99.90;;;;;;5045915;28;20188;-64
2021/11/07 03:28:16;;;;;;;12.63;10.37;;;10.30;99.90;;;;;;5030152;28;20207;-64
2021/11/07 03:30:50;;;;;;;11.80;10.57;;;10.30;99.90;;;;;;5076693;28;20221;-63
2021/11/07 03:33:25;;;;;;;14.03;11.40;;;10.30;99.90;;;;;;5063084;28;20202;-63
2021/11/07 03:36:01;;;;;;;12.73;11.00;;;10.40;99.90;;;;;;5065682;28;20721;-64
2021/11/07 03:38:30;;;;;;;14.60;10.73;;;10.40;99.90;;;;;;5063254;28;20196;-64
2021/11/07 03:40:58;;;;;;;13.47;11.30;;;10.40;99.90;;;;;;5042168;28;20212;-64
2021/11/07 03:43:29;;;;;;;12.80;11.43;;;10.30;99.90;;;;;;5064071;28;20196;-63
2021/11/07 03:45:58;;;;;;;16.67;11.43;;;10.40;99.90;;;;;;5047381;28;20235;-64
2021/11/07 03:48:27;;;;;;;13.57;11.23;;;10.40;99.90;;;;;;5063557;28;20228;-64
2021/11/07 03:50:57;;;;;;;10.77;9.60;;;10.40;99.90;;;;;;5048550;28;20200;-64
2021/11/07 03:53:26;;;;;;;11.93;10.03;;;10.40;99.90;;;;;;5042148;28;20192;-63
2021/11/07 03:55:54;;;;;;;11.37;10.10;;;10.40;99.90;;;;;;5045552;28;20245;-63
2021/11/07 03:58:23;;;;;;;10.57;9.47;;;10.40;99.90;;;;;;5063059;28;20204;-64
2021/11/07 04:00:53;;;;;;;12.47;9.13;;;10.40;99.90;;;;;;5061709;28;20211;-63
2021/11/07 04:03:22;;;;;;;10.70;9.60;;;10.40;99.90;;;;;;5060340;28;20287;-63
2021/11/07 04:05:51;;;;;;;10.30;8.70;;;10.40;99.90;;;;;;5064203;28;20212;-63
2021/11/07 04:08:20;;;;;;;12.60;9.27;;;10.40;99.90;;;;;;5046004;28;20212;-64
2021/11/07 04:10:48;;;;;;;9.43;8.53;;;10.50;99.90;;;;;;5059105;28;20290;-64
2021/11/07 04:13:19;;;;;;;10.60;9.30;;;10.50;99.90;;;;;;5063445;28;20204;-64
2021/11/07 04:15:47;;;;;;;11.83;9.13;;;10.50;99.90;;;;;;5066010;28;20232;-63
2021/11/07 04:18:17;;;;;;;9.83;8.73;;;10.40;99.90;;;;;;5045537;28;20192;-64
2021/11/07 04:20:46;;;;;;;11.13;8.83;;;10.40;99.90;;;;;;5062870;28;20200;-64
2021/11/07 04:23:15;;;;;;;11.47;9.40;;;10.40;99.90;;;;;;5063615;28;20279;-64
2021/11/07 04:25:43;;;;;;;11.50;9.40;;;10.40;99.90;;;;;;5043580;28;20192;-63
2021/11/07 04:28:12;;;;;;;11.97;8.90;;;10.40;99.90;;;;;;5044928;28;20211;-63
2021/11/07 04:30:40;;;;;;;12.37;8.80;;;10.40;99.90;;;;;;5062789;28;20208;-63
2021/11/07 04:33:09;;;;;;;10.40;9.33;;;10.50;99.90;;;;;;5060476;28;20261;-64
2021/11/07 04:35:39;;;;;;;11.50;9.03;;;10.50;99.90;;;;;;5063038;28;20207;-64
2021/11/07 04:38:08;;;;;;;14.17;9.43;;;10.50;99.90;;;;;;5064000;28;20249;-64
2021/11/07 04:40:36;;;;;;;11.67;9.27;;;10.50;99.90;;;;;;5059880;28;20687;-63
2021/11/07 04:43:05;;;;;;;11.43;9.60;;;10.50;99.90;;;;;;5061203;28;20217;-64
2021/11/07 04:45:34;;;;;;;10.70;9.70;;;10.50;99.90;;;;;;5062989;28;20270;-64
2021/11/07 04:48:04;;;;;;;11.33;9.80;;;10.40;99.90;;;;;;5045226;28;20212;-63
2021/11/07 04:50:36;;;;;;;13.37;9.30;;;10.40;99.90;;;;;;5062125;28;20211;-64
2021/11/07 04:53:07;;;;;;;11.93;10.17;;;10.40;99.90;;;;;;5029618;28;20195;-63
2021/11/07 04:55:38;;;;;;;11.70;10.43;;;10.40;99.90;;;;;;5064163;28;20188;-63
2021/11/07 04:58:07;;;;;;;14.67;10.47;;;10.40;99.90;;;;;;5061657;28;20305;-62
2021/11/07 05:00:36;;;;;;;11.57;10.33;;;10.40;99.90;;;;;;5042967;28;20274;-64
2021/11/07 05:03:05;;;;;;;11.60;10.40;;;10.40;99.90;;;;;;5073776;28;20204;-63
2021/11/07 05:05:35;;;;;;;12.30;11.00;;;10.30;99.90;;;;;;5072600;28;20269;-64
2021/11/07 05:08:04;;;;;;;13.53;11.10;;;10.30;99.90;;;;;;5047200;28;20208;-64
2021/11/07 05:10:35;;;;;;;15.97;11.60;;;10.30;99.90;;;;;;5047658;28;20192;-63
2021/11/07 05:13:04;;;;;;;16.57;11.73;;;10.40;99.90;;;;;;5065940;28;20196;-64
2021/11/07 05:15:33;;;;;;;15.93;11.10;;;10.40;99.90;;;;;;5046942;28;20339;-64
2021/11/07 05:18:02;;;;;;;12.73;11.37;;;10.40;99.90;;;;;;5066140;28;20197;-64
2021/11/07 05:20:31;;;;;;;16.47;12.23;;;10.40;99.90;;;;;;5046314;28;20206;-63
2021/11/07 05:22:59;;;;;;;14.43;11.03;;;10.40;99.90;;;;;;5066352;28;20208;-64
2021/11/07 05:25:29;;;;;;;15.63;11.40;;;10.50;99.90;;;;;;5068502;28;20203;-64
2021/11/07 05:27:59;;;;;;;14.23;10.97;;;10.50;99.90;;;;;;5066239;28;20295;-64
2021/11/07 05:30:28;;;;;;;13.17;11.60;;;10.50;99.90;;;;;;5064445;28;20221;-63
2021/11/07 05:32:56;;;;;;;16.33;11.63;;;10.60;99.90;;;;;;5068313;28;20188;-63
2021/11/07 05:35:26;;;;;;;16.97;11.03;;;10.60;99.90;;;;;;5068603;28;20279;-64
2021/11/07 05:37:54;;;;;;;15.43;10.67;;;10.70;99.90;;;;;;5066055;28;20280;-64
2021/11/07 05:40:23;;;;;;;16.33;11.13;;;10.80;99.90;;;;;;5066018;28;20203;-64
2021/11/07 05:42:52;;;;;;;12.10;10.80;;;10.80;99.90;;;;;;5046900;28;20203;-64
2021/11/07 05:45:22;;;;;;;18.30;11.73;;;10.80;99.90;;;;;;5068423;28;20216;-64
2021/11/07 05:47:50;;;;;;;17.87;11.07;;;10.80;99.90;;;;;;5065513;28;20268;-63
2021/11/07 05:50:21;;;;;;;16.67;10.30;;;10.90;99.90;;;;;;5044559;28;20291;-63
2021/11/07 05:52:50;;;;;;;16.10;10.70;;;10.80;99.90;;;;;;5064331;28;20723;-64
2021/11/07 05:55:19;;;;;;;12.40;9.73;;;10.80;99.90;;;;;;5066635;28;20192;-64
2021/11/07 05:57:48;;;;;;;13.90;10.00;;;10.80;99.90;;;;;;5064750;28;20196;-64
2021/11/07 06:00:20;;;;;;;17.53;10.17;;;10.90;99.90;;;;;;5048526;28;20817;-64
2021/11/07 06:03:12;;;;;;;18.97;9.97;;;10.90;99.90;;;;;;5066609;28;20651;-64
2021/11/07 06:05:40;;;;;;;17.10;10.20;;;10.90;99.90;;;;;;5045797;28;20231;-64
2021/11/07 06:08:09;;;;;;;11.87;8.83;;;10.90;99.90;;;;;;5065902;28;20192;-64
2021/11/07 06:10:38;;;;;;;15.17;9.37;;;10.90;99.90;;;;;;5046664;28;20338;-64
2021/11/07 06:13:06;;;;;;;12.17;8.80;;;10.90;99.90;;;;;;5063819;28;20204;-64
2021/11/07 06:15:34;;;;;;;12.77;8.83;;;10.90;99.90;;;;;;5030912;28;20285;-64
2021/11/07 06:18:03;;;;;;;22.50;10.07;;;10.90;99.90;;;;;;5062765;28;20212;-64
2021/11/07 06:20:33;;;;;;;14.77;9.60;;;10.90;99.90;;;;;;5066960;28;20245;-64
2021/11/07 06:23:03;;;;;;;13.83;9.87;;;10.90;99.90;;;;;;5066577;28;20699;-64
2021/11/07 06:25:33;;;;;;;14.57;9.30;;;10.90;99.90;;;;;;5066272;28;20201;-64
2021/11/07 06:28:01;;;;;;;14.13;9.43;;;10.90;99.90;;;;;;5078489;28;20606;-64
2021/11/07 06:30:29;;;;;;;16.70;10.27;;;10.90;99.90;;;;;;5049143;28;20388;-64
2021/11/07 06:32:58;;;;;;;18.90;10.40;;;10.90;99.90;;;;;;5046694;28;20192;-64
2021/11/07 06:35:29;;;;;;;14.90;9.03;;;10.90;99.90;;;;;;5049061;28;20196;-64
2021/11/07 06:38:02;;;;;;;16.63;9.03;;;10.90;99.90;;;;;;5044803;28;20291;-63
2021/11/07 06:40:30;;;;;;;13.70;8.27;;;10.80;99.90;;;;;;5063818;28;20197;-63
2021/11/07 06:42:59;;;;;;;14.90;8.30;;;10.80;99.90;;;;;;5064020;28;20196;-64
2021/11/07 06:45:27;;;;;;;15.27;7.77;;;10.80;99.90;;;;;;5065572;28;20228;-64
2021/11/07 06:47:56;;;;;;;17.40;7.57;;;10.80;99.90;;;;;;5045568;28;20613;-64
2021/11/07 06:50:25;;;;;;;14.73;7.30;;;10.80;99.90;;;;;;5066338;28;20615;-64
2021/11/07 06:52:54;;;;;;;18.13;7.47;;;10.80;99.90;;;;;;5063982;28;20200;-64
2021/11/07 06:55:23;;;;;;;13.83;7.60;;;10.70;99.90;;;;;;5048640;28;20192;-64
2021/11/07 06:57:52;;;;;;;11.00;7.07;;;10.70;99.90;;;;;;5064340;28;20249;-63
2021/11/07 07:00:23;;;;;;;13.97;7.37;;;10.70;99.90;;;;;;5064453;28;20275;-64
2021/11/07 07:02:52;;;;;;;10.57;7.43;;;10.70;99.90;;;;;;5043271;28;20616;-64
2021/11/07 07:05:21;;;;;;;14.23;7.40;;;10.70;99.90;;;;;;5066021;28;20234;-64
2021/11/07 07:07:53;;;;;;;17.80;7.63;;;10.70;99.90;;;;;;5062961;28;20226;-64
2021/11/07 07:10:28;;;;;;;13.63;7.43;;;10.70;99.90;;;;;;5065214;28;20235;-64
2021/11/07 07:13:02;;;;;;;16.87;7.00;;;10.70;99.90;;;;;;5064183;28;20253;-64
2021/11/07 07:15:32;;;;;;;15.80;7.00;;;10.70;99.90;;;;;;5067319;28;20234;-64
2021/11/07 07:18:11;;;;;;;12.50;6.00;;;10.70;99.90;;;;;;5064253;28;20312;-64
2021/11/07 07:20:56;;;;;;;14.07;6.03;;;10.60;99.90;;;;;;5065155;28;20250;-64
2021/11/07 07:23:54;;;;;;;10.63;5.40;;;10.60;99.90;;;;;;5065463;28;20259;-64
2021/11/07 07:26:44;;;;;;;11.60;4.90;;;10.60;99.90;;;;;;5046497;28;20247;-63
2021/11/07 07:32:11;;;;;;;15.97;4.20;;;10.40;99.90;;;;;;5065309;28;20784;-64
2021/11/07 07:34:42;;;;;;;15.20;4.27;;;10.40;99.90;;;;;;5064507;28;20242;-64
2021/11/07 07:37:11;;;;;;;17.47;4.60;;;10.40;99.90;;;;;;5064203;28;20273;-64
2021/11/07 07:39:41;;;;;;;13.93;3.97;;;10.40;99.90;;;;;;5027402;28;20835;-64
2021/11/07 07:42:11;;;;;;;10.23;3.50;;;10.40;99.90;;;;;;5064360;28;20223;-63
2021/11/07 07:44:42;;;;;;;14.30;3.87;;;10.30;99.90;;;;;;5064207;28;20207;-64
2021/11/07 07:47:10;;;;;;;10.00;3.57;;;10.40;99.90;;;;;;5057631;28;20196;-64
2021/11/07 07:49:39;;;;;;;13.23;4.53;;;10.40;99.90;;;;;;5063090;28;20626;-64
2021/11/07 07:52:07;;;;;;;11.53;4.23;;;10.50;99.90;;;;;;5059598;28;20197;-64
2021/11/07 07:54:36;;;;;;;13.67;3.87;;;10.60;99.90;;;;;;5061270;28;20249;-64
2021/11/07 07:57:05;;;;;;;14.10;3.50;;;10.60;99.90;;;;;;5044427;28;20230;-64
2021/11/07 07:59:35;;;;;;;11.43;3.37;;;10.70;99.90;;;;;;5058864;28;20196;-64
2021/11/07 08:02:03;;;;;;;9.53;3.37;;;10.70;99.90;;;;;;5063647;28;20220;-64
2021/11/07 08:04:32;;;;;;;17.00;3.23;;;10.70;99.90;;;;;;5063877;28;20671;-63
2021/11/07 08:07:02;;;;;;;11.20;3.10;;;10.70;99.90;;;;;;5062809;28;20200;-63
2021/11/07 08:09:30;;;;;;;17.07;3.93;;;10.70;99.90;;;;;;5059857;28;20213;-64
2021/11/07 08:11:59;;;;;;;10.67;3.53;;;10.70;99.90;;;;;;5057011;28;20234;-64
2021/11/07 08:14:27;;;;;;;13.30;4.50;;;10.60;99.90;;;;;;5063776;28;20241;-63
2021/11/07 08:16:58;;;;;;;13.87;4.23;;;10.60;99.90;;;;;;5065817;28;20231;-63
2021/11/07 08:19:26;;;;;;;15.33;3.50;;;10.60;99.90;;;;;;5066526;28;20208;-63
2021/11/07 08:21:55;;;;;;;13.83;3.67;;;10.60;99.90;;;;;;5057580;28;20192;-64
2021/11/07 08:24:24;;;;;;;10.60;4.10;;;10.70;99.90;;;;;;5062719;28;20211;-64
2021/11/07 08:26:52;;;;;;;15.57;4.53;;;10.70;99.90;;;;;;5056972;28;20431;-64
2021/11/07 08:29:20;;;;;;;13.83;4.37;;;10.70;99.90;;;;;;5038486;28;20185;-64
2021/11/07 08:31:51;;;;;;;16.00;3.43;;;10.60;99.90;;;;;;5060615;28;20257;-64
2021/11/07 08:34:24;;;;;;;9.03;3.27;;;10.60;99.90;;;;;;5044243;28;20192;-63
2021/11/07 08:36:58;;;;;;;16.47;4.10;;;10.50;99.90;;;;;;5059717;28;20208;-64
2021/11/07 08:39:30;;;;;;;12.00;3.60;;;10.50;99.90;;;;;;5061529;28;20180;-64
2021/11/07 08:42:01;;;;;;;15.77;4.40;;;10.50;99.90;;;;;;5061616;28;20559;-63
2021/11/07 09:01:20;;;;;;;12.43;3.50;;;10.70;99.90;;;;;;5062706;28;20687;-64
2021/11/07 09:03:53;;;;;;;16.13;5.10;;;10.70;99.90;;;;;;5060514;28;20698;-64
2021/11/07 09:09:11;;;;;;;20.73;5.20;;;10.90;99.90;;;;;;5060200;28;20286;-63
2021/11/07 09:11:48;;;;;;;14.30;3.40;;;11.10;99.90;;;;;;5065595;28;20311;-63
2021/11/07 09:14:17;;;;;;;14.67;4.13;;;11.30;99.90;;;;;;5068889;28;20780;-64
2021/11/07 09:16:46;;;;;;;19.50;4.97;;;11.50;99.90;;;;;;5062227;28;20247;-63
2021/11/07 09:19:18;;;;;;;19.37;4.37;;;11.70;99.90;;;;;;5059571;28;20212;-64
2021/11/07 09:21:52;;;;;;;19.37;4.30;;;11.80;99.90;;;;;;5064674;28;20279;-64
2021/11/07 09:24:32;;;;;;;22.43;5.43;;;12.00;99.90;;;;;;5067717;28;20662;-63
2021/11/07 09:27:06;;;;;;;12.87;3.53;;;12.10;99.90;;;;;;5078292;28;20196;-64
2021/11/07 09:29:45;;;;;;;16.70;4.10;;;12.10;99.90;;;;;;5059363;28;20223;-64
2021/11/07 09:32:24;;;;;;;17.63;3.63;;;12.20;99.90;;;;;;5062378;28;20196;-64
2021/11/07 09:34:57;;;;;;;17.40;4.17;;;12.20;99.90;;;;;;5046315;28;20215;-63
2021/11/07 09:37:32;;;;;;;16.27;3.80;;;12.10;99.90;;;;;;5056824;28;20207;-64
2021/11/07 09:40:04;;;;;;;10.77;3.30;;;12.10;99.90;;;;;;5058062;28;20215;-64
2021/11/07 09:42:40;;;;;;;20.93;4.43;;;12.10;99.90;;;;;;5068311;28;20696;-63
2021/11/07 09:45:16;;;;;;;22.70;4.00;;;12.10;99.90;;;;;;5060592;28;20207;-64
2021/11/07 09:47:49;;;;;;;12.20;3.53;;;12.20;99.90;;;;;;5042394;28;20208;-64
2021/11/07 09:50:18;;;;;;;14.57;3.80;;;12.40;99.90;;;;;;5062086;28;20220;-64
2021/11/07 09:52:49;;;;;;;14.37;3.60;;;12.50;99.90;;;;;;5062575;28;20301;-64
2021/11/07 09:55:20;;;;;;;13.43;4.10;;;12.60;99.90;;;;;;5062882;28;20192;-63
2021/11/07 09:57:52;;;;;;;13.47;3.60;;;12.60;99.90;;;;;;5067052;28;20196;-64
2021/11/07 10:00:24;;;;;;;10.57;3.50;;;12.70;99.90;;;;;;5063053;28;20279;-64
2021/11/07 10:02:54;;;;;;;14.83;3.83;;;12.60;99.90;;;;;;5063247;28;20196;-64
2021/11/07 10:05:24;;;;;;;10.47;3.73;;;12.60;99.90;;;;;;5048137;28;20204;-64
2021/11/07 10:08:00;;;;;;;12.87;3.73;;;12.60;99.90;;;;;;5061007;28;20250;-64
2021/11/07 10:10:33;;;;;;;15.87;4.70;;;12.60;99.90;;;;;;5044687;28;20207;-64
2021/11/07 10:13:07;;;;;;;16.10;4.17;;;12.70;99.90;;;;;;5066466;28;20227;-64
2021/11/07 10:15:42;;;;;;;15.87;3.90;;;12.90;99.90;;;;;;5066307;28;20292;-64
2021/11/07 10:18:13;;;;;;;20.10;4.10;;;13.30;99.90;;;;;;5044448;28;20204;-64
2021/11/07 10:20:46;;;;;;;15.43;3.53;;;13.60;99.90;;;;;;5064244;28;20184;-64
2021/11/07 10:23:20;;;;;;;10.23;3.07;;;14.20;99.90;;;;;;5060998;28;20250;-64
2021/11/07 10:25:56;;;;;;;11.80;3.30;;;14.60;99.90;;;;;;5064562;28;20622;-64
2021/11/07 10:28:30;;;;;;;11.80;3.00;;;14.70;99.90;;;;;;5063396;28;20221;-64
2021/11/07 10:31:05;;;;;;;13.73;3.60;;;14.40;99.90;;;;;;5072108;28;20675;-64
2021/11/07 10:34:04;;;;;;;18.00;3.20;;;14.10;99.90;;;;;;5067309;28;20202;-64
2021/11/07 10:39:57;;;;;;;15.67;3.53;;;13.80;99.90;;;;;;5054710;28;20256;-64
2021/11/07 10:42:47;;;;;;;16.10;3.60;;;13.70;99.90;;;;;;5061627;28;20340;-64
2021/11/07 10:45:23;;;;;;;13.37;3.27;;;13.70;99.90;;;;;;5060093;28;20801;-64
2021/11/07 10:48:21;;;;;;;12.90;3.33;;;13.50;99.90;;;;;;5062234;28;20352;-64
2021/11/07 10:54:13;;;;;;;20.10;3.50;;;13.50;99.90;;;;;;5002386;28;20200;-64
2021/11/07 10:56:44;;;;;;;12.30;3.40;;;13.30;99.90;;;;;;4999752;28;20229;-64
2021/11/07 10:59:17;;;;;;;15.43;3.73;;;13.20;99.90;;;;;;5035144;28;20220;-63
2021/11/07 11:01:46;;;;;;;20.00;4.37;;;13.00;99.90;;;;;;5047287;28;20203;-64
2021/11/07 11:04:14;;;;;;;15.00;3.40;;;13.00;99.90;;;;;;5061614;28;20249;-64
2021/11/07 11:06:54;;;;;;;13.37;3.50;;;12.90;99.90;;;;;;5063744;28;20192;-64
2021/11/07 11:09:23;;;;;;;20.17;4.10;;;13.00;99.90;;;;;;5047164;28;20223;-64
2021/11/07 11:12:16;;;;;;;12.93;3.80;;;13.10;99.90;;;;;;5061996;28;20243;-64
2021/11/07 11:15:11;;;;;;;17.67;4.20;;;13.10;99.90;;;;;;5058691;28;20536;-64
2021/11/07 11:18:05;;;;;;;15.40;4.77;;;13.10;99.90;;;;;;5060578;28;20211;-64
2021/11/07 11:20:44;;;;;;;17.90;4.57;;;12.90;99.90;;;;;;5059617;28;20195;-64
2021/11/07 11:23:21;;;;;;;19.77;5.00;;;12.80;99.90;;;;;;5059416;28;20729;-64
2021/11/07 11:25:54;;;;;;;16.13;4.93;;;12.70;99.90;;;;;;5063696;28;20230;-63
2021/11/07 11:28:33;;;;;;;15.40;3.40;;;12.60;99.90;;;;;;5047426;28;20188;-64
2021/11/07 11:31:13;;;;;;;16.47;3.47;;;12.60;99.90;;;;;;5060729;28;20195;-65
2021/11/07 11:33:46;;;;;;;13.67;3.47;;;12.60;99.90;;;;;;5065045;28;20207;-64
2021/11/07 11:36:23;;;;;;;15.83;3.73;;;12.60;99.90;;;;;;5053604;28;20206;-64
2021/11/07 11:38:56;;;;;;;15.93;3.60;;;12.60;99.90;;;;;;5056589;28;20273;-63
2021/11/07 11:41:31;;;;;;;20.27;3.43;;;12.70;99.90;;;;;;5065681;28;20784;-63
2021/11/07 11:44:03;;;;;;;15.23;3.23;;;12.70;99.90;;;;;;5063321;28;20226;-64
2021/11/07 11:46:42;;;;;;;19.10;3.33;;;12.80;99.90;;;;;;5056024;28;20800;-64
2021/11/07 11:52:18;;;;;;;16.53;3.67;;;12.70;99.90;;;;;;5062566;28;20227;-64
2021/11/07 11:55:03;;;;;;;10.30;3.00;;;13.00;99.90;;;;;;5044786;28;20595;-64
2021/11/07 11:57:55;;;;;;;16.17;3.20;;;13.30;99.90;;;;;;5061299;28;20284;-64
2021/11/07 12:03:36;;;;;;;12.33;3.33;;;13.30;99.90;;;;;;5069440;28;20277;-64
2021/11/07 12:06:47;;;;;;;22.83;3.57;;;13.30;99.90;;;;;;5056737;28;20199;-64
2021/11/07 12:09:24;;;;;;;13.57;3.77;;;13.10;99.90;;;;;;5041812;28;20202;-64
2021/11/07 12:11:57;;;;;;;15.87;3.60;;;13.00;99.90;;;;;;5060980;28;20316;-64
2021/11/07 12:14:34;;;;;;;11.60;3.37;;;13.00;99.90;;;;;;5043636;28;20606;-64
2021/11/07 12:17:08;;;;;;;17.80;3.87;;;13.10;99.90;;;;;;5062976;28;20974;-64
2021/11/07 12:19:39;;;;;;;12.43;4.67;;;13.30;99.90;;;;;;5038006;28;20204;-64
2021/11/07 12:22:14;;;;;;;16.37;3.93;;;13.40;99.90;;;;;;5056149;28;20251;-64
2021/11/07 12:25:08;;;;;;;20.37;5.97;;;13.50;99.90;;;;;;5060797;28;20211;-64
2021/11/07 12:27:43;;;;;;;15.23;3.47;;;13.40;99.90;;;;;;5057383;28;20199;-63
2021/11/07 12:30:24;;;;;;;21.27;3.93;;;13.10;99.90;;;;;;5064145;28;20257;-63
2021/11/07 12:33:05;;;;;;;18.87;3.77;;;12.80;99.90;;;;;;5060852;28;20239;-63
2021/11/07 12:35:37;;;;;;;21.23;4.27;;;12.70;99.90;;;;;;5064512;28;20196;-63
2021/11/07 12:41:07;;;;;;;15.77;4.57;;;12.70;99.90;;;;;;5061375;28;20204;-63
2021/11/07 12:43:40;;;;;;;15.93;4.73;;;12.80;99.90;;;;;;5061057;28;20266;-63
2021/11/07 12:46:23;;;;;;;23.17;5.67;;;13.00;99.90;;;;;;5061205;28;20208;-63
2021/11/07 12:48:55;;;;;;;18.23;5.80;;;12.90;99.90;;;;;;5057059;28;20245;-63
2021/11/07 12:51:37;;;;;;;18.23;3.77;;;12.80;99.90;;;;;;5060154;28;20211;-63
2021/11/07 12:54:10;;;;;;;17.27;5.57;;;12.70;99.90;;;;;;5039216;28;20217;-62
2021/11/07 12:56:55;;;;;;;22.20;3.67;;;12.50;99.90;;;;;;5064370;28;20210;-63
2021/11/07 12:59:30;;;;;;;16.97;5.37;;;12.30;99.90;;;;;;5056133;28;20291;-63
2021/11/07 13:02:23;;;;;;;18.27;3.83;;;12.10;99.90;;;;;;5061060;28;20268;-62
2021/11/07 13:04:57;;;;;;;25.07;5.00;;;12.10;99.90;;;;;;5060283;28;20600;-63
2021/11/07 13:07:29;;;;;;;24.03;5.03;;;12.00;99.90;;;;;;5060175;28;20606;-63
2021/11/07 13:10:05;;;;;;;14.17;4.10;;;12.00;99.90;;;;;;5054731;28;20239;-63
2021/11/07 13:12:38;;;;;;;23.43;5.37;;;12.00;99.90;;;;;;5072011;28;20214;-63
2021/11/07 13:24:21;;;;;;;22.27;6.07;;;12.20;99.90;;;;;;5060465;28;20665;-62
2021/11/07 13:27:10;;;;;;;20.77;5.37;;;12.10;99.90;;;;;;5060071;28;20266;-63
2021/11/07 13:29:48;;;;;;;21.00;5.00;;;12.10;99.90;;;;;;5063392;28;20291;-63
2021/11/07 13:35:12;;;;;;;22.90;6.00;;;12.00;99.90;;;;;;5064325;28;20601;-62
2021/11/07 13:37:49;;;;;;;27.20;6.63;;;12.00;99.90;;;;;;5066080;28;20208;-62
2021/11/07 13:40:24;;;;;;;28.40;6.03;;;12.00;99.90;;;;;;5066927;28;20188;-62
2021/11/07 13:42:53;;;;;;;33.73;6.57;;;11.90;99.90;;;;;;5066216;28;20195;-62
2021/11/07 13:45:27;;;;;;;22.10;5.63;;;11.90;99.90;;;;;;5066370;28;20211;-62
2021/11/07 13:47:56;;;;;;;27.47;6.30;;;11.90;99.90;;;;;;5062155;28;20262;-62
2021/11/07 13:50:27;;;;;;;20.00;4.70;;;11.90;99.90;;;;;;5061505;28;20192;-62
2021/11/07 13:52:57;;;;;;;16.43;4.10;;;11.90;99.90;;;;;;5044130;28;20226;-62